首页
METAR-TAF:

METAR-TAF

机场 :

印威內斯, 苏格兰

纬度: 57-32N, 经度: 004-03W, 海拔: 9米

当前天气观测

该预报发布于12分钟前的12:20 UTC
风速2节,风向多变
温度 12°C
湿度 58%
气压 1002 hPa
能见度10公里或以上
少量云层高于1500英尺
散云层高于3400英尺

METAR: EGPE 231220Z VRB02KT 9999 FEW015 SCT034 12/04 Q1002

时间: 13:32 (12:32 UTC)

预报

该预报发布于1小时和30分钟前的11:02 UTC
预报有效从23日的 12点(UTC)到 23日的 21点(UTC)
风速5节,风向西南
能见度10公里或以上
少量云层高于1500英尺
散云层高于2500英尺

TAF: EGPE 231102Z 2312/2321 23005KT 9999 FEW015 SCT025

超过4000个机场的气象观测和天气预报(METAR&TAF报告)。

可查询的气象台以黄色和红色小点在地图上表示。

将鼠标移到小点上方,可查看气象台名称。

然后点击查看天气观测和预报。

如需切换地图:点击带黑十字的绿色按钮放大地图;点击带横线的绿色按钮缩小地图;或者点击绿色箭头查看邻近地区的地图。


METAR-TAF: